sensor_id;sensor_type;location;lat;lon;timestamp;P1;durP1;ratioP1;P2;durP2;ratioP2
80175;SDS011;71945;42.122;24.732;2023-08-06T00:01:55;11.30;;;7.35;;
80175;SDS011;71945;42.122;24.732;2023-08-06T00:04:21;14.85;;;7.72;;
80175;SDS011;71945;42.122;24.732;2023-08-06T00:06:47;13.15;;;8.00;;
80175;SDS011;71945;42.122;24.732;2023-08-06T00:09:12;10.10;;;7.88;;
80175;SDS011;71945;42.122;24.732;2023-08-06T00:11:38;9.95;;;7.57;;
80175;SDS011;71945;42.122;24.732;2023-08-06T00:14:06;10.55;;;7.75;;
80175;SDS011;71945;42.122;24.732;2023-08-06T00:16:31;12.55;;;7.93;;
80175;SDS011;71945;42.122;24.732;2023-08-06T00:18:57;14.88;;;8.57;;
80175;SDS011;71945;42.122;24.732;2023-08-06T00:21:23;9.50;;;8.20;;
80175;SDS011;71945;42.122;24.732;2023-08-06T00:23:48;10.77;;;8.30;;
80175;SDS011;71945;42.122;24.732;2023-08-06T00:26:14;15.95;;;8.50;;
80175;SDS011;71945;42.122;24.732;2023-08-06T00:28:39;17.30;;;8.43;;
80175;SDS011;71945;42.122;24.732;2023-08-06T00:31:05;9.82;;;7.65;;
80175;SDS011;71945;42.122;24.732;2023-08-06T00:33:31;11.95;;;8.13;;
80175;SDS011;71945;42.122;24.732;2023-08-06T00:35:56;15.20;;;8.57;;
80175;SDS011;71945;42.122;24.732;2023-08-06T00:38:22;12.75;;;8.30;;
80175;SDS011;71945;42.122;24.732;2023-08-06T00:40:48;11.25;;;8.07;;
80175;SDS011;71945;42.122;24.732;2023-08-06T00:43:13;11.90;;;8.15;;
80175;SDS011;71945;42.122;24.732;2023-08-06T00:45:39;11.98;;;8.00;;
80175;SDS011;71945;42.122;24.732;2023-08-06T00:48:05;13.48;;;8.18;;
80175;SDS011;71945;42.122;24.732;2023-08-06T00:50:32;10.45;;;7.50;;
80175;SDS011;71945;42.122;24.732;2023-08-06T00:52:57;11.07;;;7.82;;
80175;SDS011;71945;42.122;24.732;2023-08-06T00:55:24;12.95;;;8.63;;
80175;SDS011;71945;42.122;24.732;2023-08-06T00:57:50;14.85;;;8.35;;
80175;SDS011;71945;42.122;24.732;2023-08-06T01:00:18;13.85;;;8.23;;
80175;SDS011;71945;42.122;24.732;2023-08-06T01:02:45;13.77;;;8.30;;
80175;SDS011;71945;42.122;24.732;2023-08-06T01:05:11;12.48;;;9.18;;
80175;SDS011;71945;42.122;24.732;2023-08-06T01:15:47;10.90;;;8.50;;
80175;SDS011;71945;42.122;24.732;2023-08-06T01:18:15;12.25;;;8.35;;
80175;SDS011;71945;42.122;24.732;2023-08-06T01:20:41;14.10;;;8.32;;
80175;SDS011;71945;42.122;24.732;2023-08-06T01:23:07;11.75;;;9.07;;
80175;SDS011;71945;42.122;24.732;2023-08-06T01:25:38;14.13;;;8.35;;
80175;SDS011;71945;42.122;24.732;2023-08-06T01:28:44;12.57;;;8.20;;
80175;SDS011;71945;42.122;24.732;2023-08-06T01:31:21;8.65;;;7.57;;
80175;SDS011;71945;42.122;24.732;2023-08-06T01:33:50;10.27;;;8.52;;
80175;SDS011;71945;42.122;24.732;2023-08-06T01:36:18;9.88;;;8.25;;
80175;SDS011;71945;42.122;24.732;2023-08-06T01:38:45;11.13;;;8.93;;
80175;SDS011;71945;42.122;24.732;2023-08-06T01:41:10;11.30;;;7.95;;
80175;SDS011;71945;42.122;24.732;2023-08-06T01:43:36;10.88;;;8.77;;
80175;SDS011;71945;42.122;24.732;2023-08-06T01:46:02;13.02;;;8.65;;
80175;SDS011;71945;42.122;24.732;2023-08-06T01:48:27;12.82;;;8.88;;
80175;SDS011;71945;42.122;24.732;2023-08-06T01:50:54;10.48;;;8.50;;
80175;SDS011;71945;42.122;24.732;2023-08-06T01:53:19;11.70;;;8.95;;
80175;SDS011;71945;42.122;24.732;2023-08-06T01:55:48;12.68;;;9.32;;
80175;SDS011;71945;42.122;24.732;2023-08-06T01:58:14;16.73;;;9.35;;
80175;SDS011;71945;42.122;24.732;2023-08-06T02:00:40;11.50;;;9.15;;
80175;SDS011;71945;42.122;24.732;2023-08-06T02:03:06;13.93;;;9.80;;
80175;SDS011;71945;42.122;24.732;2023-08-06T02:05:32;13.95;;;9.25;;
80175;SDS011;71945;42.122;24.732;2023-08-06T02:07:58;15.98;;;10.00;;
80175;SDS011;71945;42.122;24.732;2023-08-06T02:10:23;12.65;;;9.25;;
80175;SDS011;71945;42.122;24.732;2023-08-06T02:12:49;12.80;;;9.15;;
80175;SDS011;71945;42.122;24.732;2023-08-06T02:15:15;13.32;;;9.50;;
80175;SDS011;71945;42.122;24.732;2023-08-06T02:17:41;12.98;;;9.70;;
80175;SDS011;71945;42.122;24.732;2023-08-06T02:20:06;17.30;;;9.70;;
80175;SDS011;71945;42.122;24.732;2023-08-06T02:22:32;13.05;;;9.98;;
80175;SDS011;71945;42.122;24.732;2023-08-06T02:24:58;20.88;;;10.90;;
80175;SDS011;71945;42.122;24.732;2023-08-06T02:27:24;16.85;;;10.88;;
80175;SDS011;71945;42.122;24.732;2023-08-06T02:29:50;17.60;;;11.23;;
80175;SDS011;71945;42.122;24.732;2023-08-06T02:32:15;16.83;;;12.25;;
80175;SDS011;71945;42.122;24.732;2023-08-06T02:34:41;16.23;;;12.30;;
80175;SDS011;71945;42.122;24.732;2023-08-06T02:37:07;18.25;;;13.18;;
80175;SDS011;71945;42.122;24.732;2023-08-06T02:39:32;17.23;;;14.35;;
80175;SDS011;71945;42.122;24.732;2023-08-06T02:41:59;25.58;;;15.05;;
80175;SDS011;71945;42.122;24.732;2023-08-06T02:44:27;18.35;;;15.07;;
80175;SDS011;71945;42.122;24.732;2023-08-06T02:46:53;19.75;;;14.93;;
80175;SDS011;71945;42.122;24.732;2023-08-06T02:49:19;19.98;;;15.18;;
80175;SDS011;71945;42.122;24.732;2023-08-06T02:51:45;25.05;;;14.27;;
80175;SDS011;71945;42.122;24.732;2023-08-06T02:54:10;19.13;;;15.10;;
80175;SDS011;71945;42.122;24.732;2023-08-06T02:56:36;20.95;;;15.73;;
80175;SDS011;71945;42.122;24.732;2023-08-06T02:59:02;20.35;;;14.43;;
80175;SDS011;71945;42.122;24.732;2023-08-06T03:01:27;18.33;;;15.25;;
80175;SDS011;71945;42.122;24.732;2023-08-06T03:03:53;22.15;;;15.23;;
80175;SDS011;71945;42.122;24.732;2023-08-06T03:06:19;18.52;;;14.55;;
80175;SDS011;71945;42.122;24.732;2023-08-06T03:08:45;19.95;;;15.68;;
80175;SDS011;71945;42.122;24.732;2023-08-06T03:11:10;18.30;;;16.50;;
80175;SDS011;71945;42.122;24.732;2023-08-06T03:13:36;22.92;;;16.27;;
80175;SDS011;71945;42.122;24.732;2023-08-06T03:16:02;23.33;;;16.00;;
80175;SDS011;71945;42.122;24.732;2023-08-06T03:18:27;20.55;;;16.77;;
80175;SDS011;71945;42.122;24.732;2023-08-06T03:20:53;26.70;;;19.40;;
80175;SDS011;71945;42.122;24.732;2023-08-06T03:23:19;25.17;;;17.45;;
80175;SDS011;71945;42.122;24.732;2023-08-06T03:25:44;22.58;;;17.23;;
80175;SDS011;71945;42.122;24.732;2023-08-06T03:28:11;23.17;;;16.77;;
80175;SDS011;71945;42.122;24.732;2023-08-06T03:30:38;22.55;;;17.00;;
80175;SDS011;71945;42.122;24.732;2023-08-06T03:33:03;23.25;;;17.48;;
80175;SDS011;71945;42.122;24.732;2023-08-06T03:35:29;21.95;;;16.90;;
80175;SDS011;71945;42.122;24.732;2023-08-06T03:37:55;22.10;;;17.52;;
80175;SDS011;71945;42.122;24.732;2023-08-06T03:40:20;20.65;;;18.13;;
80175;SDS011;71945;42.122;24.732;2023-08-06T03:42:46;19.67;;;17.58;;
80175;SDS011;71945;42.122;24.732;2023-08-06T03:45:12;22.02;;;17.92;;
80175;SDS011;71945;42.122;24.732;2023-08-06T03:47:37;23.60;;;17.95;;
80175;SDS011;71945;42.122;24.732;2023-08-06T03:50:03;25.98;;;17.30;;
80175;SDS011;71945;42.122;24.732;2023-08-06T03:52:29;28.15;;;19.60;;
80175;SDS011;71945;42.122;24.732;2023-08-06T03:54:55;24.80;;;19.95;;
80175;SDS011;71945;42.122;24.732;2023-08-06T03:57:20;22.27;;;19.33;;
80175;SDS011;71945;42.122;24.732;2023-08-06T03:59:46;24.23;;;19.33;;
80175;SDS011;71945;42.122;24.732;2023-08-06T04:02:11;25.85;;;20.25;;
80175;SDS011;71945;42.122;24.732;2023-08-06T04:04:37;25.70;;;19.65;;
80175;SDS011;71945;42.122;24.732;2023-08-06T04:07:03;24.25;;;20.60;;
80175;SDS011;71945;42.122;24.732;2023-08-06T04:09:29;25.05;;;21.30;;
80175;SDS011;71945;42.122;24.732;2023-08-06T04:11:54;23.98;;;20.52;;
80175;SDS011;71945;42.122;24.732;2023-08-06T04:14:20;24.73;;;20.38;;
80175;SDS011;71945;42.122;24.732;2023-08-06T04:16:46;27.42;;;21.05;;
80175;SDS011;71945;42.122;24.732;2023-08-06T04:19:12;23.85;;;20.40;;
80175;SDS011;71945;42.122;24.732;2023-08-06T04:21:37;23.63;;;21.00;;
80175;SDS011;71945;42.122;24.732;2023-08-06T04:24:03;22.92;;;20.75;;
80175;SDS011;71945;42.122;24.732;2023-08-06T04:26:29;28.10;;;21.08;;
80175;SDS011;71945;42.122;24.732;2023-08-06T04:28:54;24.15;;;21.33;;
80175;SDS011;71945;42.122;24.732;2023-08-06T04:31:21;30.50;;;23.05;;
80175;SDS011;71945;42.122;24.732;2023-08-06T04:33:46;23.65;;;20.73;;
80175;SDS011;71945;42.122;24.732;2023-08-06T04:36:12;24.08;;;21.55;;
80175;SDS011;71945;42.122;24.732;2023-08-06T04:38:38;28.25;;;20.67;;
80175;SDS011;71945;42.122;24.732;2023-08-06T04:41:06;28.20;;;24.20;;
80175;SDS011;71945;42.122;24.732;2023-08-06T04:43:32;31.25;;;25.75;;
80175;SDS011;71945;42.122;24.732;2023-08-06T04:45:57;26.88;;;21.55;;
80175;SDS011;71945;42.122;24.732;2023-08-06T04:48:23;25.27;;;22.55;;
80175;SDS011;71945;42.122;24.732;2023-08-06T04:50:49;25.50;;;22.65;;
80175;SDS011;71945;42.122;24.732;2023-08-06T04:53:19;26.60;;;21.77;;
80175;SDS011;71945;42.122;24.732;2023-08-06T04:55:51;29.98;;;23.67;;
80175;SDS011;71945;42.122;24.732;2023-08-06T04:58:17;28.27;;;22.58;;
80175;SDS011;71945;42.122;24.732;2023-08-06T05:00:42;25.80;;;22.83;;
80175;SDS011;71945;42.122;24.732;2023-08-06T05:03:08;26.17;;;22.08;;
80175;SDS011;71945;42.122;24.732;2023-08-06T05:05:34;29.02;;;22.73;;
80175;SDS011;71945;42.122;24.732;2023-08-06T05:07:59;24.83;;;22.20;;
80175;SDS011;71945;42.122;24.732;2023-08-06T05:10:25;25.55;;;22.85;;
80175;SDS011;71945;42.122;24.732;2023-08-06T05:12:51;27.98;;;24.25;;
80175;SDS011;71945;42.122;24.732;2023-08-06T05:15:17;35.22;;;26.08;;
80175;SDS011;71945;42.122;24.732;2023-08-06T05:17:49;31.60;;;25.05;;
80175;SDS011;71945;42.122;24.732;2023-08-06T05:20:15;30.45;;;22.55;;
80175;SDS011;71945;42.122;24.732;2023-08-06T05:22:41;17.83;;;13.65;;
80175;SDS011;71945;42.122;24.732;2023-08-06T05:25:06;18.65;;;11.23;;
80175;SDS011;71945;42.122;24.732;2023-08-06T05:27:32;14.23;;;11.40;;
80175;SDS011;71945;42.122;24.732;2023-08-06T05:29:58;22.80;;;9.23;;
80175;SDS011;71945;42.122;24.732;2023-08-06T05:32:24;13.02;;;8.57;;
80175;SDS011;71945;42.122;24.732;2023-08-06T05:34:58;12.50;;;7.07;;
80175;SDS011;71945;42.122;24.732;2023-08-06T05:37:24;10.20;;;7.45;;
80175;SDS011;71945;42.122;24.732;2023-08-06T05:39:50;11.80;;;8.07;;
80175;SDS011;71945;42.122;24.732;2023-08-06T05:42:15;10.43;;;7.72;;
80175;SDS011;71945;42.122;24.732;2023-08-06T05:44:47;9.20;;;7.50;;
80175;SDS011;71945;42.122;24.732;2023-08-06T05:47:13;14.57;;;8.25;;
80175;SDS011;71945;42.122;24.732;2023-08-06T05:49:38;9.52;;;7.90;;
80175;SDS011;71945;42.122;24.732;2023-08-06T05:52:04;10.98;;;8.60;;
80175;SDS011;71945;42.122;24.732;2023-08-06T05:54:31;10.00;;;8.05;;
80175;SDS011;71945;42.122;24.732;2023-08-06T05:57:06;11.18;;;8.73;;
80175;SDS011;71945;42.122;24.732;2023-08-06T05:59:31;8.65;;;7.55;;
80175;SDS011;71945;42.122;24.732;2023-08-06T06:01:57;9.98;;;8.48;;
80175;SDS011;71945;42.122;24.732;2023-08-06T06:04:23;13.13;;;7.80;;
80175;SDS011;71945;42.122;24.732;2023-08-06T06:06:55;12.48;;;8.65;;
80175;SDS011;71945;42.122;24.732;2023-08-06T06:09:20;10.43;;;9.27;;
80175;SDS011;71945;42.122;24.732;2023-08-06T06:11:46;11.15;;;9.70;;
80175;SDS011;71945;42.122;24.732;2023-08-06T06:14:18;11.65;;;9.48;;
80175;SDS011;71945;42.122;24.732;2023-08-06T06:16:47;12.23;;;9.48;;
80175;SDS011;71945;42.122;24.732;2023-08-06T06:22:47;15.75;;;8.90;;
80175;SDS011;71945;42.122;24.732;2023-08-06T06:28:47;10.38;;;8.52;;
80175;SDS011;71945;42.122;24.732;2023-08-06T06:31:19;12.38;;;10.90;;
80175;SDS011;71945;42.122;24.732;2023-08-06T06:33:59;12.45;;;10.20;;
80175;SDS011;71945;42.122;24.732;2023-08-06T06:36:25;17.75;;;12.43;;
80175;SDS011;71945;42.122;24.732;2023-08-06T06:38:51;16.85;;;13.40;;
80175;SDS011;71945;42.122;24.732;2023-08-06T06:41:19;19.60;;;15.00;;
80175;SDS011;71945;42.122;24.732;2023-08-06T06:43:48;17.50;;;11.90;;
80175;SDS011;71945;42.122;24.732;2023-08-06T06:46:14;13.45;;;10.27;;
80175;SDS011;71945;42.122;24.732;2023-08-06T06:48:40;12.90;;;10.73;;
80175;SDS011;71945;42.122;24.732;2023-08-06T06:51:05;11.07;;;9.90;;
80175;SDS011;71945;42.122;24.732;2023-08-06T06:53:34;13.13;;;10.48;;
80175;SDS011;71945;42.122;24.732;2023-08-06T06:56:08;11.35;;;9.40;;
80175;SDS011;71945;42.122;24.732;2023-08-06T06:58:34;16.83;;;10.52;;
80175;SDS011;71945;42.122;24.732;2023-08-06T07:01:00;14.35;;;10.95;;
80175;SDS011;71945;42.122;24.732;2023-08-06T07:03:25;23.33;;;15.52;;
80175;SDS011;71945;42.122;24.732;2023-08-06T07:05:51;19.60;;;12.90;;
80175;SDS011;71945;42.122;24.732;2023-08-06T07:11:42;12.23;;;11.02;;
80175;SDS011;71945;42.122;24.732;2023-08-06T07:14:18;19.98;;;13.65;;
80175;SDS011;71945;42.122;24.732;2023-08-06T07:16:43;14.30;;;12.48;;
80175;SDS011;71945;42.122;24.732;2023-08-06T07:19:09;19.40;;;13.27;;
80175;SDS011;71945;42.122;24.732;2023-08-06T07:21:37;22.20;;;14.38;;
80175;SDS011;71945;42.122;24.732;2023-08-06T07:24:03;23.23;;;14.38;;
80175;SDS011;71945;42.122;24.732;2023-08-06T07:26:29;18.60;;;13.77;;
80175;SDS011;71945;42.122;24.732;2023-08-06T07:28:54;14.27;;;10.65;;
80175;SDS011;71945;42.122;24.732;2023-08-06T07:31:20;14.25;;;12.20;;
80175;SDS011;71945;42.122;24.732;2023-08-06T07:33:45;15.98;;;11.93;;
80175;SDS011;71945;42.122;24.732;2023-08-06T07:36:12;13.55;;;11.68;;
80175;SDS011;71945;42.122;24.732;2023-08-06T07:38:39;15.35;;;12.50;;
80175;SDS011;71945;42.122;24.732;2023-08-06T07:41:08;18.77;;;11.95;;
80175;SDS011;71945;42.122;24.732;2023-08-06T07:43:34;16.70;;;13.32;;
80175;SDS011;71945;42.122;24.732;2023-08-06T07:46:01;22.52;;;12.52;;
80175;SDS011;71945;42.122;24.732;2023-08-06T07:51:03;14.45;;;11.93;;
80175;SDS011;71945;42.122;24.732;2023-08-06T07:53:54;12.90;;;11.60;;
80175;SDS011;71945;42.122;24.732;2023-08-06T07:56:23;13.13;;;11.60;;
80175;SDS011;71945;42.122;24.732;2023-08-06T07:58:51;13.95;;;12.43;;
80175;SDS011;71945;42.122;24.732;2023-08-06T08:01:26;13.57;;;11.65;;
80175;SDS011;71945;42.122;24.732;2023-08-06T08:03:51;14.25;;;12.00;;
80175;SDS011;71945;42.122;24.732;2023-08-06T08:06:26;16.75;;;12.88;;
80175;SDS011;71945;42.122;24.732;2023-08-06T08:12:43;18.98;;;14.18;;
80175;SDS011;71945;42.122;24.732;2023-08-06T08:15:12;16.80;;;12.73;;
80175;SDS011;71945;42.122;24.732;2023-08-06T08:17:58;15.20;;;12.88;;
80175;SDS011;71945;42.122;24.732;2023-08-06T08:20:26;14.07;;;12.60;;
80175;SDS011;71945;42.122;24.732;2023-08-06T08:23:18;14.68;;;12.77;;
80175;SDS011;71945;42.122;24.732;2023-08-06T08:25:51;16.05;;;13.40;;
80175;SDS011;71945;42.122;24.732;2023-08-06T08:28:20;16.27;;;14.57;;
80175;SDS011;71945;42.122;24.732;2023-08-06T08:30:46;17.55;;;14.60;;
80175;SDS011;71945;42.122;24.732;2023-08-06T08:33:12;14.05;;;12.75;;
80175;SDS011;71945;42.122;24.732;2023-08-06T08:35:38;13.40;;;12.05;;
80175;SDS011;71945;42.122;24.732;2023-08-06T08:38:03;11.57;;;10.23;;
80175;SDS011;71945;42.122;24.732;2023-08-06T08:40:32;12.35;;;10.77;;
80175;SDS011;71945;42.122;24.732;2023-08-06T08:43:02;9.60;;;8.73;;
80175;SDS011;71945;42.122;24.732;2023-08-06T08:45:29;9.52;;;8.55;;
80175;SDS011;71945;42.122;24.732;2023-08-06T08:47:58;10.70;;;9.02;;
80175;SDS011;71945;42.122;24.732;2023-08-06T08:50:25;16.17;;;11.38;;
80175;SDS011;71945;42.122;24.732;2023-08-06T08:52:51;14.23;;;12.18;;
80175;SDS011;71945;42.122;24.732;2023-08-06T08:55:17;13.85;;;11.88;;
80175;SDS011;71945;42.122;24.732;2023-08-06T08:57:46;12.95;;;11.63;;
80175;SDS011;71945;42.122;24.732;2023-08-06T09:00:12;13.85;;;12.43;;
80175;SDS011;71945;42.122;24.732;2023-08-06T09:02:39;14.05;;;12.65;;
80175;SDS011;71945;42.122;24.732;2023-08-06T09:05:06;13.23;;;12.02;;
80175;SDS011;71945;42.122;24.732;2023-08-06T09:07:38;13.73;;;12.32;;
80175;SDS011;71945;42.122;24.732;2023-08-06T09:10:14;16.52;;;11.35;;
80175;SDS011;71945;42.122;24.732;2023-08-06T09:12:43;14.70;;;13.30;;
80175;SDS011;71945;42.122;24.732;2023-08-06T09:15:10;12.35;;;11.15;;
80175;SDS011;71945;42.122;24.732;2023-08-06T09:17:36;11.98;;;10.88;;
80175;SDS011;71945;42.122;24.732;2023-08-06T09:20:14;12.48;;;10.35;;
80175;SDS011;71945;42.122;24.732;2023-08-06T09:22:40;14.25;;;10.20;;
80175;SDS011;71945;42.122;24.732;2023-08-06T09:25:06;10.25;;;9.35;;
80175;SDS011;71945;42.122;24.732;2023-08-06T09:27:37;9.10;;;8.20;;
80175;SDS011;71945;42.122;24.732;2023-08-06T09:30:03;11.43;;;10.23;;
80175;SDS011;71945;42.122;24.732;2023-08-06T09:32:44;9.75;;;8.85;;
80175;SDS011;71945;42.122;24.732;2023-08-06T09:35:16;6.90;;;6.40;;
80175;SDS011;71945;42.122;24.732;2023-08-06T09:37:42;7.40;;;6.80;;
80175;SDS011;71945;42.122;24.732;2023-08-06T09:40:24;8.05;;;7.25;;
80175;SDS011;71945;42.122;24.732;2023-08-06T09:42:57;8.05;;;7.13;;
80175;SDS011;71945;42.122;24.732;2023-08-06T09:45:35;8.45;;;6.60;;
80175;SDS011;71945;42.122;24.732;2023-08-06T09:48:07;8.73;;;8.00;;
80175;SDS011;71945;42.122;24.732;2023-08-06T09:50:49;9.40;;;8.60;;
80175;SDS011;71945;42.122;24.732;2023-08-06T09:53:19;10.32;;;9.50;;
80175;SDS011;71945;42.122;24.732;2023-08-06T09:55:45;11.75;;;10.80;;
80175;SDS011;71945;42.122;24.732;2023-08-06T09:58:14;11.50;;;10.60;;
80175;SDS011;71945;42.122;24.732;2023-08-06T10:00:40;12.35;;;11.00;;
80175;SDS011;71945;42.122;24.732;2023-08-06T10:03:10;11.43;;;10.23;;
80175;SDS011;71945;42.122;24.732;2023-08-06T10:05:38;13.05;;;11.68;;
80175;SDS011;71945;42.122;24.732;2023-08-06T10:08:05;13.38;;;12.10;;
80175;SDS011;71945;42.122;24.732;2023-08-06T10:10:33;13.23;;;11.90;;
80175;SDS011;71945;42.122;24.732;2023-08-06T10:13:00;15.82;;;12.50;;
80175;SDS011;71945;42.122;24.732;2023-08-06T10:15:28;12.27;;;11.27;;
80175;SDS011;71945;42.122;24.732;2023-08-06T10:17:57;12.80;;;11.50;;
80175;SDS011;71945;42.122;24.732;2023-08-06T10:20:24;12.05;;;10.80;;
80175;SDS011;71945;42.122;24.732;2023-08-06T10:23:00;11.32;;;10.38;;
80175;SDS011;71945;42.122;24.732;2023-08-06T10:25:31;11.70;;;10.70;;
80175;SDS011;71945;42.122;24.732;2023-08-06T10:27:58;11.98;;;10.98;;
80175;SDS011;71945;42.122;24.732;2023-08-06T10:30:31;11.52;;;10.52;;
80175;SDS011;71945;42.122;24.732;2023-08-06T10:33:01;10.77;;;9.88;;
80175;SDS011;71945;42.122;24.732;2023-08-06T10:38:09;11.05;;;10.23;;
80175;SDS011;71945;42.122;24.732;2023-08-06T10:40:40;11.30;;;10.38;;
80175;SDS011;71945;42.122;24.732;2023-08-06T10:43:07;10.68;;;9.77;;
80175;SDS011;71945;42.122;24.732;2023-08-06T10:45:35;10.88;;;10.00;;
80175;SDS011;71945;42.122;24.732;2023-08-06T10:48:01;10.65;;;9.75;;
80175;SDS011;71945;42.122;24.732;2023-08-06T10:50:27;10.13;;;9.05;;
80175;SDS011;71945;42.122;24.732;2023-08-06T10:52:53;10.55;;;9.60;;
80175;SDS011;71945;42.122;24.732;2023-08-06T10:55:24;9.10;;;8.25;;
80175;SDS011;71945;42.122;24.732;2023-08-06T10:57:56;10.00;;;9.20;;
80175;SDS011;71945;42.122;24.732;2023-08-06T11:00:23;9.38;;;8.48;;
80175;SDS011;71945;42.122;24.732;2023-08-06T11:02:49;9.38;;;8.35;;
80175;SDS011;71945;42.122;24.732;2023-08-06T11:05:27;9.73;;;8.73;;
80175;SDS011;71945;42.122;24.732;2023-08-06T11:07:52;9.30;;;8.60;;
80175;SDS011;71945;42.122;24.732;2023-08-06T11:10:18;9.77;;;8.93;;
80175;SDS011;71945;42.122;24.732;2023-08-06T11:12:44;9.57;;;8.02;;
80175;SDS011;71945;42.122;24.732;2023-08-06T11:15:09;9.02;;;8.20;;
80175;SDS011;71945;42.122;24.732;2023-08-06T11:17:36;9.35;;;8.43;;
80175;SDS011;71945;42.122;24.732;2023-08-06T11:20:04;8.70;;;7.30;;
80175;SDS011;71945;42.122;24.732;2023-08-06T11:22:30;9.57;;;8.32;;
80175;SDS011;71945;42.122;24.732;2023-08-06T11:24:57;7.38;;;6.78;;
80175;SDS011;71945;42.122;24.732;2023-08-06T11:27:22;9.55;;;7.20;;
80175;SDS011;71945;42.122;24.732;2023-08-06T11:29:51;10.50;;;8.07;;
80175;SDS011;71945;42.122;24.732;2023-08-06T11:32:20;8.00;;;7.40;;
80175;SDS011;71945;42.122;24.732;2023-08-06T11:34:45;7.15;;;6.45;;
80175;SDS011;71945;42.122;24.732;2023-08-06T11:37:11;7.35;;;6.65;;
80175;SDS011;71945;42.122;24.732;2023-08-06T11:39:37;6.20;;;5.78;;
80175;SDS011;71945;42.122;24.732;2023-08-06T11:42:04;6.45;;;5.93;;
80175;SDS011;71945;42.122;24.732;2023-08-06T11:44:31;6.10;;;5.70;;
80175;SDS011;71945;42.122;24.732;2023-08-06T11:46:58;6.40;;;5.90;;
80175;SDS011;71945;42.122;24.732;2023-08-06T11:49:45;6.78;;;6.10;;
80175;SDS011;71945;42.122;24.732;2023-08-06T11:52:23;6.80;;;6.20;;
80175;SDS011;71945;42.122;24.732;2023-08-06T11:55:06;5.88;;;5.38;;
80175;SDS011;71945;42.122;24.732;2023-08-06T11:57:40;6.20;;;5.07;;
80175;SDS011;71945;42.122;24.732;2023-08-06T12:00:10;5.28;;;4.78;;
80175;SDS011;71945;42.122;24.732;2023-08-06T12:02:41;5.35;;;4.80;;
80175;SDS011;71945;42.122;24.732;2023-08-06T12:05:11;4.70;;;4.03;;
80175;SDS011;71945;42.122;24.732;2023-08-06T12:07:51;5.13;;;4.30;;
80175;SDS011;71945;42.122;24.732;2023-08-06T12:10:21;4.15;;;3.85;;
80175;SDS011;71945;42.122;24.732;2023-08-06T12:12:49;4.80;;;4.40;;
80175;SDS011;71945;42.122;24.732;2023-08-06T12:15:15;6.15;;;4.70;;
80175;SDS011;71945;42.122;24.732;2023-08-06T12:17:41;6.43;;;5.05;;
80175;SDS011;71945;42.122;24.732;2023-08-06T12:20:07;7.38;;;5.82;;
80175;SDS011;71945;42.122;24.732;2023-08-06T12:22:34;13.38;;;8.38;;
80175;SDS011;71945;42.122;24.732;2023-08-06T12:25:01;8.43;;;5.68;;
80175;SDS011;71945;42.122;24.732;2023-08-06T12:27:41;5.93;;;5.15;;
80175;SDS011;71945;42.122;24.732;2023-08-06T12:30:09;4.75;;;4.30;;
80175;SDS011;71945;42.122;24.732;2023-08-06T12:32:36;6.03;;;5.45;;
80175;SDS011;71945;42.122;24.732;2023-08-06T12:35:02;6.13;;;5.53;;
80175;SDS011;71945;42.122;24.732;2023-08-06T12:37:28;5.97;;;4.68;;
80175;SDS011;71945;42.122;24.732;2023-08-06T12:39:54;7.43;;;5.55;;
80175;SDS011;71945;42.122;24.732;2023-08-06T12:42:19;7.63;;;5.28;;
80175;SDS011;71945;42.122;24.732;2023-08-06T12:44:45;4.40;;;4.00;;
80175;SDS011;71945;42.122;24.732;2023-08-06T12:47:12;4.18;;;3.80;;
80175;SDS011;71945;42.122;24.732;2023-08-06T12:49:38;6.15;;;4.40;;
80175;SDS011;71945;42.122;24.732;2023-08-06T12:52:04;6.68;;;4.05;;
80175;SDS011;71945;42.122;24.732;2023-08-06T12:54:31;4.45;;;4.13;;
80175;SDS011;71945;42.122;24.732;2023-08-06T12:57:01;4.40;;;3.97;;
80175;SDS011;71945;42.122;24.732;2023-08-06T12:59:27;4.93;;;4.35;;
80175;SDS011;71945;42.122;24.732;2023-08-06T13:01:54;4.53;;;4.10;;
80175;SDS011;71945;42.122;24.732;2023-08-06T13:04:20;4.97;;;4.57;;
80175;SDS011;71945;42.122;24.732;2023-08-06T13:06:46;4.30;;;3.90;;
80175;SDS011;71945;42.122;24.732;2023-08-06T13:09:12;4.57;;;3.97;;
80175;SDS011;71945;42.122;24.732;2023-08-06T13:11:39;4.20;;;3.80;;
80175;SDS011;71945;42.122;24.732;2023-08-06T13:14:06;4.07;;;3.45;;
80175;SDS011;71945;42.122;24.732;2023-08-06T13:16:34;3.33;;;3.13;;
80175;SDS011;71945;42.122;24.732;2023-08-06T13:19:00;3.50;;;3.20;;
80175;SDS011;71945;42.122;24.732;2023-08-06T13:21:33;4.60;;;3.53;;
80175;SDS011;71945;42.122;24.732;2023-08-06T13:24:05;3.80;;;3.50;;
80175;SDS011;71945;42.122;24.732;2023-08-06T13:26:31;3.70;;;3.40;;
80175;SDS011;71945;42.122;24.732;2023-08-06T13:28:59;3.45;;;3.15;;
80175;SDS011;71945;42.122;24.732;2023-08-06T13:31:27;3.53;;;3.25;;
80175;SDS011;71945;42.122;24.732;2023-08-06T13:33:54;3.53;;;3.13;;
80175;SDS011;71945;42.122;24.732;2023-08-06T13:36:20;3.90;;;3.20;;
80175;SDS011;71945;42.122;24.732;2023-08-06T13:38:47;5.65;;;3.40;;
80175;SDS011;71945;42.122;24.732;2023-08-06T13:41:14;4.25;;;3.78;;
80175;SDS011;71945;42.122;24.732;2023-08-06T13:43:41;3.97;;;3.58;;
80175;SDS011;71945;42.122;24.732;2023-08-06T13:46:07;6.90;;;3.40;;
80175;SDS011;71945;42.122;24.732;2023-08-06T13:48:35;3.92;;;2.85;;
80175;SDS011;71945;42.122;24.732;2023-08-06T13:51:02;4.00;;;3.70;;
80175;SDS011;71945;42.122;24.732;2023-08-06T13:53:31;3.28;;;2.70;;
80175;SDS011;71945;42.122;24.732;2023-08-06T13:55:57;3.22;;;2.92;;
80175;SDS011;71945;42.122;24.732;2023-08-06T13:58:22;3.83;;;3.15;;
80175;SDS011;71945;42.122;24.732;2023-08-06T14:00:48;4.25;;;3.80;;
80175;SDS011;71945;42.122;24.732;2023-08-06T14:03:14;3.03;;;2.80;;
80175;SDS011;71945;42.122;24.732;2023-08-06T14:05:40;3.80;;;3.50;;
80175;SDS011;71945;42.122;24.732;2023-08-06T14:08:06;3.50;;;3.20;;
80175;SDS011;71945;42.122;24.732;2023-08-06T14:10:32;4.50;;;3.72;;
80175;SDS011;71945;42.122;24.732;2023-08-06T14:12:57;6.75;;;3.13;;
80175;SDS011;71945;42.122;24.732;2023-08-06T14:15:26;8.10;;;5.25;;
80175;SDS011;71945;42.122;24.732;2023-08-06T14:17:52;8.00;;;4.13;;
80175;SDS011;71945;42.122;24.732;2023-08-06T14:20:17;4.82;;;3.40;;
80175;SDS011;71945;42.122;24.732;2023-08-06T14:22:43;6.72;;;4.70;;
80175;SDS011;71945;42.122;24.732;2023-08-06T14:25:09;5.60;;;5.10;;
80175;SDS011;71945;42.122;24.732;2023-08-06T14:27:34;8.00;;;5.68;;
80175;SDS011;71945;42.122;24.732;2023-08-06T14:30:00;4.57;;;3.60;;
80175;SDS011;71945;42.122;24.732;2023-08-06T14:32:28;3.25;;;2.92;;
80175;SDS011;71945;42.122;24.732;2023-08-06T14:34:54;3.50;;;3.25;;
80175;SDS011;71945;42.122;24.732;2023-08-06T14:37:19;3.17;;;2.90;;
80175;SDS011;71945;42.122;24.732;2023-08-06T14:39:45;5.32;;;3.00;;
80175;SDS011;71945;42.122;24.732;2023-08-06T14:42:10;3.42;;;3.13;;
80175;SDS011;71945;42.122;24.732;2023-08-06T14:44:36;4.43;;;3.95;;
80175;SDS011;71945;42.122;24.732;2023-08-06T14:47:02;6.97;;;3.20;;
80175;SDS011;71945;42.122;24.732;2023-08-06T14:49:28;5.80;;;3.60;;
80175;SDS011;71945;42.122;24.732;2023-08-06T14:51:53;4.03;;;3.50;;